Time;durP1;ratioP1;P1;durP2;ratioP2;P2;SDS_P1;SDS_P2;PMS_P1;PMS_P2;Temp;Humidity;BMP_temperature;BMP_pressure;BME280_temperature;BME280_humidity;BME280_pressure;Samples;Min_cycle;Max_cycle;Signal;HPM_P1;HPM_P2
2023/09/24 00:02:12;;;;;;;8.73;5.05;;;13.50;99.90;;;;;;5048774;28;20414;-57
2023/09/24 00:04:39;;;;;;;9.88;5.63;;;13.50;99.90;;;;;;5050739;28;20112;-58
2023/09/24 00:07:08;;;;;;;7.75;4.85;;;13.50;99.90;;;;;;5048849;28;20053;-57
2023/09/24 00:09:33;;;;;;;8.82;4.47;;;13.60;99.90;;;;;;5050584;28;20056;-58
2023/09/24 00:11:59;;;;;;;9.60;5.30;;;13.60;99.90;;;;;;5049089;28;20075;-57
2023/09/24 00:14:30;;;;;;;11.55;5.43;;;13.60;99.90;;;;;;5050303;28;20036;-58
2023/09/24 00:16:56;;;;;;;6.72;4.53;;;13.50;99.90;;;;;;5048726;28;20067;-57
2023/09/24 00:19:22;;;;;;;10.27;5.50;;;13.60;99.90;;;;;;5050154;28;20033;-57
2023/09/24 00:21:47;;;;;;;6.22;4.68;;;13.60;99.90;;;;;;5049290;28;20434;-57
2023/09/24 00:24:17;;;;;;;8.95;5.25;;;13.60;99.90;;;;;;5050129;28;20513;-58
2023/09/24 00:26:43;;;;;;;7.05;4.75;;;13.70;99.90;;;;;;5050200;28;20458;-58
2023/09/24 00:29:10;;;;;;;10.77;5.15;;;13.70;99.90;;;;;;5049849;28;20029;-57
2023/09/24 00:31:35;;;;;;;9.15;5.68;;;13.70;99.90;;;;;;5049320;28;20318;-58
2023/09/24 00:34:01;;;;;;;6.40;5.13;;;13.70;99.90;;;;;;5049626;28;20083;-58
2023/09/24 00:36:26;;;;;;;7.90;5.10;;;13.70;99.90;;;;;;5050007;28;20025;-58
2023/09/24 00:38:52;;;;;;;9.98;6.13;;;13.70;99.90;;;;;;5049563;28;20390;-57
2023/09/24 00:41:17;;;;;;;7.60;4.95;;;13.70;99.90;;;;;;5050068;28;20032;-58
2023/09/24 00:43:43;;;;;;;7.40;5.03;;;13.80;99.90;;;;;;5048172;28;20437;-58
2023/09/24 00:46:11;;;;;;;7.55;5.70;;;13.80;99.90;;;;;;5049598;28;20512;-58
2023/09/24 00:48:37;;;;;;;6.22;4.60;;;13.80;99.90;;;;;;5049763;28;20086;-57
2023/09/24 00:51:19;;;;;;;6.97;5.63;;;13.80;99.90;;;;;;5049341;28;20021;-58
2023/09/24 00:53:46;;;;;;;7.22;4.90;;;13.80;99.90;;;;;;5049447;28;20032;-58
2023/09/24 00:56:13;;;;;;;10.75;6.65;;;13.80;99.90;;;;;;5046821;28;20020;-58
2023/09/24 00:58:41;;;;;;;8.73;5.40;;;13.80;99.90;;;;;;5044930;28;20028;-58
2023/09/24 01:01:06;;;;;;;8.10;5.57;;;13.80;99.90;;;;;;5048912;28;20070;-58
2023/09/24 01:03:32;;;;;;;5.72;4.78;;;13.90;99.90;;;;;;5049034;28;20096;-59
2023/09/24 01:05:58;;;;;;;10.27;5.70;;;13.80;99.90;;;;;;5049489;28;20329;-59
2023/09/24 01:08:25;;;;;;;8.13;4.90;;;13.80;99.90;;;;;;5048096;28;20378;-59
2023/09/24 01:10:51;;;;;;;8.55;5.95;;;13.80;99.90;;;;;;5049026;28;20087;-59
2023/09/24 01:13:24;;;;;;;8.18;5.53;;;13.80;99.90;;;;;;5048303;28;20029;-59
2023/09/24 01:15:51;;;;;;;12.30;6.60;;;13.80;99.90;;;;;;5049014;28;20493;-58
2023/09/24 01:18:18;;;;;;;10.57;7.15;;;13.80;99.90;;;;;;5048559;28;20013;-58
2023/09/24 01:20:44;;;;;;;9.25;5.72;;;13.80;99.90;;;;;;5047171;28;20032;-58
2023/09/24 01:23:11;;;;;;;10.90;5.53;;;13.80;99.90;;;;;;5045824;28;20021;-58
2023/09/24 01:25:37;;;;;;;9.40;6.65;;;13.80;99.90;;;;;;5043619;28;20450;-58
2023/09/24 01:28:04;;;;;;;8.18;6.50;;;13.80;99.90;;;;;;5044917;28;20087;-58
2023/09/24 01:30:30;;;;;;;8.93;5.38;;;13.80;99.90;;;;;;5040574;28;20033;-58
2023/09/24 01:32:57;;;;;;;10.25;6.10;;;13.80;99.90;;;;;;5047015;28;20029;-58
2023/09/24 01:35:28;;;;;;;8.10;6.13;;;13.80;99.90;;;;;;5043546;28;20031;-58
2023/09/24 01:38:04;;;;;;;5.93;5.00;;;13.80;99.90;;;;;;5036138;28;20572;-58
2023/09/24 01:40:34;;;;;;;9.00;5.50;;;13.90;99.90;;;;;;5047968;28;20037;-57
2023/09/24 01:43:05;;;;;;;7.90;5.72;;;13.80;99.90;;;;;;5042613;28;20017;-59
2023/09/24 01:45:30;;;;;;;;;;;13.90;99.90;;;;;;5041284;28;20087;-59
2023/09/24 01:47:56;;;;;;;10.35;6.18;;;13.80;99.90;;;;;;5041185;28;19908;-59
2023/09/24 01:50:27;;;;;;;7.88;5.88;;;13.80;99.90;;;;;;5047745;28;20268;-58
2023/09/24 01:52:56;;;;;;;6.65;5.10;;;13.80;99.90;;;;;;5047403;28;20031;-58
2023/09/24 01:55:21;;;;;;;12.23;6.50;;;13.80;99.90;;;;;;5043285;28;20101;-58
2023/09/24 01:57:47;;;;;;;6.88;4.82;;;13.80;99.90;;;;;;5048919;28;20479;-58
2023/09/24 02:00:26;;;;;;;11.73;6.25;;;13.80;99.90;;;;;;5048134;28;20021;-58
2023/09/24 02:02:52;;;;;;;8.45;5.45;;;13.80;99.90;;;;;;5047999;28;20029;-58
2023/09/24 02:05:19;;;;;;;5.60;4.88;;;13.80;99.90;;;;;;5046841;28;20033;-58
2023/09/24 02:07:51;;;;;;;7.68;5.63;;;13.80;99.90;;;;;;5047812;28;20364;-58
2023/09/24 02:10:18;;;;;;;8.38;5.50;;;13.80;99.90;;;;;;5046547;28;20036;-58
2023/09/24 02:12:45;;;;;;;8.82;6.18;;;13.80;99.90;;;;;;5048245;28;20070;-58
2023/09/24 02:15:18;;;;;;;12.48;6.65;;;13.80;99.90;;;;;;5047184;28;20025;-58
2023/09/24 02:17:45;;;;;;;7.82;5.43;;;13.80;99.90;;;;;;5046880;28;20491;-58
2023/09/24 02:20:18;;;;;;;8.18;5.95;;;13.80;99.90;;;;;;5046441;28;20025;-58
2023/09/24 02:22:48;;;;;;;10.18;5.28;;;13.80;99.90;;;;;;5048009;28;20433;-58
2023/09/24 02:25:14;;;;;;;9.13;5.88;;;13.80;99.90;;;;;;5048725;28;20025;-58
2023/09/24 02:27:41;;;;;;;5.53;4.97;;;13.80;99.90;;;;;;5048657;28;20032;-58
2023/09/24 02:30:10;;;;;;;7.22;5.30;;;13.80;99.90;;;;;;5043683;28;20037;-58
2023/09/24 02:32:37;;;;;;;7.47;5.68;;;13.80;99.90;;;;;;5046180;28;20029;-58
2023/09/24 02:35:03;;;;;;;11.90;6.00;;;13.80;99.90;;;;;;5040628;28;20108;-58
2023/09/24 02:37:30;;;;;;;8.82;5.80;;;13.80;99.90;;;;;;5039995;28;20448;-57
2023/09/24 02:39:55;;;;;;;7.00;6.22;;;13.80;99.90;;;;;;5032131;28;20029;-57
2023/09/24 02:42:21;;;;;;;8.45;5.30;;;13.70;99.90;;;;;;5040290;28;20316;-58
2023/09/24 02:44:48;;;;;;;9.60;6.53;;;13.70;99.90;;;;;;5032396;28;20394;-58
2023/09/24 02:47:15;;;;;;;9.93;6.55;;;13.70;99.90;;;;;;5039756;28;20029;-58
2023/09/24 02:49:41;;;;;;;8.77;5.97;;;13.70;99.90;;;;;;5040658;28;20064;-58
2023/09/24 02:52:06;;;;;;;9.30;6.18;;;13.80;99.90;;;;;;5040641;28;20480;-58
2023/09/24 02:54:32;;;;;;;11.63;6.60;;;13.70;99.90;;;;;;5037839;28;20037;-58
2023/09/24 02:56:58;;;;;;;8.13;5.22;;;13.80;99.90;;;;;;5037812;28;20474;-58
2023/09/24 02:59:23;;;;;;;12.32;5.97;;;13.80;99.90;;;;;;5036662;28;20066;-58
2023/09/24 03:01:49;;;;;;;12.55;6.47;;;13.80;99.90;;;;;;5041173;28;20398;-58
2023/09/24 03:04:15;;;;;;;6.93;5.15;;;13.80;99.90;;;;;;5032206;28;20025;-58
2023/09/24 03:06:41;;;;;;;5.20;4.70;;;13.80;99.90;;;;;;5040025;28;20021;-58
2023/09/24 03:09:10;;;;;;;5.40;4.90;;;13.80;99.90;;;;;;5032816;28;20108;-58
2023/09/24 03:11:36;;;;;;;9.13;5.80;;;13.80;99.90;;;;;;5039596;28;20033;-59
2023/09/24 03:14:01;;;;;;;4.63;4.03;;;13.80;99.90;;;;;;5040390;28;20037;-58
2023/09/24 03:16:29;;;;;;;7.53;6.55;;;13.80;99.90;;;;;;5032402;28;20025;-58
2023/09/24 03:18:55;;;;;;;6.25;5.10;;;13.80;99.90;;;;;;5040626;28;20029;-58
2023/09/24 03:21:21;;;;;;;7.80;5.25;;;13.80;99.90;;;;;;5032098;28;20089;-58
2023/09/24 03:23:46;;;;;;;8.95;6.65;;;13.80;99.90;;;;;;5032398;28;20056;-58
2023/09/24 03:26:15;;;;;;;9.50;5.80;;;13.80;99.90;;;;;;5034705;28;20052;-58
2023/09/24 03:28:43;;;;;;;7.32;5.15;;;13.70;99.90;;;;;;5042815;28;20045;-57
2023/09/24 03:31:15;;;;;;;9.07;5.75;;;13.70;99.90;;;;;;5040945;28;20025;-58
2023/09/24 03:33:41;;;;;;;7.68;5.40;;;13.70;99.90;;;;;;5036784;28;20021;-57
2023/09/24 03:36:10;;;;;;;13.43;5.95;;;13.80;99.90;;;;;;5042050;28;20161;-57
2023/09/24 03:38:38;;;;;;;5.80;5.10;;;13.70;99.90;;;;;;5032352;28;20033;-58
2023/09/24 03:41:04;;;;;;;7.00;5.50;;;13.70;99.90;;;;;;5039053;28;20033;-58
2023/09/24 03:43:30;;;;;;;9.02;6.22;;;13.80;99.90;;;;;;5035927;28;20414;-58
2023/09/24 03:45:56;;;;;;;7.18;5.50;;;13.80;99.90;;;;;;5040282;28;20106;-57
2023/09/24 03:48:23;;;;;;;11.13;7.32;;;13.80;99.90;;;;;;5032508;28;20479;-58
2023/09/24 03:50:49;;;;;;;5.10;4.65;;;13.80;99.90;;;;;;5045496;28;20021;-58
2023/09/24 03:53:18;;;;;;;5.30;4.57;;;13.70;99.90;;;;;;5032817;28;20075;-58
2023/09/24 03:55:45;;;;;;;9.45;6.25;;;13.70;99.90;;;;;;5038703;28;20396;-57
2023/09/24 03:58:12;;;;;;;6.88;6.03;;;13.70;99.90;;;;;;5034039;28;20032;-58
2023/09/24 04:00:37;;;;;;;11.88;6.50;;;13.70;99.90;;;;;;5041404;28;20025;-58
2023/09/24 04:03:03;;;;;;;6.38;5.72;;;13.80;99.90;;;;;;5042761;28;20548;-57
2023/09/24 04:05:30;;;;;;;6.53;5.75;;;13.70;99.90;;;;;;5043374;28;20046;-57
2023/09/24 04:07:55;;;;;;;7.35;5.90;;;13.70;99.90;;;;;;5050373;28;20028;-58
2023/09/24 04:10:23;;;;;;;10.73;7.28;;;13.70;99.90;;;;;;5031375;28;20029;-58
2023/09/24 04:12:52;;;;;;;9.45;7.65;;;13.70;99.90;;;;;;5038677;28;20021;-58
2023/09/24 04:15:27;;;;;;;14.00;8.10;;;13.70;99.90;;;;;;5040303;28;20029;-58
2023/09/24 04:17:55;;;;;;;10.48;7.47;;;13.70;99.90;;;;;;5038072;28;20111;-58
2023/09/24 04:20:21;;;;;;;9.80;7.50;;;13.70;99.90;;;;;;5031548;28;20133;-58
2023/09/24 04:22:47;;;;;;;7.88;6.15;;;13.70;99.90;;;;;;5037914;28;20147;-58
2023/09/24 04:25:14;;;;;;;12.13;8.23;;;13.70;99.90;;;;;;5033952;28;20107;-58
2023/09/24 04:27:40;;;;;;;10.85;8.45;;;13.70;99.90;;;;;;5044904;28;20017;-58
2023/09/24 04:30:15;;;;;;;8.98;6.57;;;13.70;99.90;;;;;;5035099;28;20029;-58
2023/09/24 04:32:41;;;;;;;7.55;6.30;;;13.70;99.90;;;;;;5032163;28;20079;-58
2023/09/24 04:35:08;;;;;;;8.75;6.88;;;13.70;99.90;;;;;;5041814;28;20100;-59
2023/09/24 04:37:33;;;;;;;11.38;5.03;;;13.70;99.90;;;;;;5032400;28;20108;-59
2023/09/24 04:39:59;;;;;;;12.93;7.50;;;13.70;99.90;;;;;;5038150;28;20574;-59
2023/09/24 04:42:25;;;;;;;11.85;7.72;;;13.70;99.90;;;;;;5032077;28;20032;-59
2023/09/24 04:44:50;;;;;;;9.30;6.32;;;13.70;99.90;;;;;;5038540;28;20249;-59
2023/09/24 04:47:16;;;;;;;14.50;9.15;;;13.70;99.90;;;;;;5033363;28;20100;-59
2023/09/24 04:49:42;;;;;;;10.23;6.63;;;13.70;99.90;;;;;;5031669;28;20087;-58
2023/09/24 04:52:07;;;;;;;13.63;9.07;;;13.70;99.90;;;;;;5037170;28;20505;-57
2023/09/24 04:54:33;;;;;;;13.88;9.38;;;13.70;99.90;;;;;;5045439;28;20104;-58
2023/09/24 04:56:58;;;;;;;16.58;9.60;;;13.70;99.90;;;;;;5042499;28;20043;-57
2023/09/24 04:59:24;;;;;;;11.60;7.30;;;13.70;99.90;;;;;;5056632;28;20060;-58
2023/09/24 05:01:50;;;;;;;10.75;7.10;;;13.70;99.90;;;;;;5036131;28;20022;-58
2023/09/24 05:04:17;;;;;;;8.85;6.68;;;13.70;99.90;;;;;;5030722;28;20083;-58
2023/09/24 05:06:42;;;;;;;10.95;7.65;;;13.70;99.90;;;;;;5032178;28;20048;-58
2023/09/24 05:09:08;;;;;;;8.43;7.00;;;13.70;99.90;;;;;;5038951;28;20048;-58
2023/09/24 05:11:34;;;;;;;8.50;6.70;;;13.70;99.90;;;;;;5038627;28;20036;-59
2023/09/24 05:13:59;;;;;;;10.18;7.90;;;13.70;99.90;;;;;;5033441;28;20037;-59
2023/09/24 05:16:26;;;;;;;8.38;6.97;;;13.70;99.90;;;;;;5037545;28;20542;-59
2023/09/24 05:18:51;;;;;;;10.00;7.47;;;13.70;99.90;;;;;;5032310;28;20061;-58
2023/09/24 05:21:18;;;;;;;8.95;6.90;;;13.70;99.90;;;;;;5034986;28;20052;-58
2023/09/24 05:23:45;;;;;;;7.55;6.75;;;13.70;99.90;;;;;;5037069;28;20053;-58
2023/09/24 05:26:13;;;;;;;7.75;6.22;;;13.70;99.90;;;;;;5035699;28;20518;-58
2023/09/24 05:28:39;;;;;;;9.55;6.43;;;13.80;99.90;;;;;;5035639;28;20398;-59
2023/09/24 05:31:04;;;;;;;8.68;6.50;;;13.80;99.90;;;;;;5042188;28;20018;-59
2023/09/24 05:33:30;;;;;;;11.68;7.93;;;13.80;99.90;;;;;;5037643;28;20021;-59
2023/09/24 05:35:56;;;;;;;9.82;7.10;;;13.70;99.90;;;;;;5038527;28;20017;-58
2023/09/24 05:38:22;;;;;;;9.00;7.40;;;13.80;99.90;;;;;;5033847;28;20090;-57
2023/09/24 05:40:47;;;;;;;9.73;7.65;;;13.80;99.90;;;;;;5044589;28;20029;-58
2023/09/24 05:43:13;;;;;;;7.28;5.97;;;13.80;99.90;;;;;;5033392;28;20021;-58
2023/09/24 05:45:49;;;;;;;10.52;7.38;;;13.90;99.90;;;;;;5034701;28;20030;-58
2023/09/24 05:48:16;;;;;;;10.60;7.25;;;13.90;99.90;;;;;;5039279;28;20163;-58
2023/09/24 05:50:42;;;;;;;10.80;7.07;;;13.90;99.90;;;;;;5032467;28;20483;-58
2023/09/24 05:53:09;;;;;;;12.07;7.60;;;14.00;99.90;;;;;;5040185;28;20206;-58
2023/09/24 05:55:35;;;;;;;8.68;6.55;;;14.00;99.90;;;;;;5012844;28;20033;-58
2023/09/24 05:58:00;;;;;;;13.63;8.93;;;14.00;99.90;;;;;;5039553;28;20028;-59
2023/09/24 06:00:28;;;;;;;10.15;8.50;;;13.90;99.90;;;;;;5035765;28;20025;-58
2023/09/24 06:02:54;;;;;;;14.40;7.75;;;14.00;99.90;;;;;;5046222;28;20580;-58
2023/09/24 06:05:19;;;;;;;8.15;7.13;;;14.00;99.90;;;;;;5047229;28;20029;-58
2023/09/24 06:07:45;;;;;;;15.75;9.60;;;14.00;99.90;;;;;;5039006;28;20111;-58
2023/09/24 06:10:10;;;;;;;9.75;7.00;;;14.00;99.90;;;;;;5037790;28;20033;-58
2023/09/24 06:12:36;;;;;;;10.05;7.50;;;14.00;99.90;;;;;;5045375;28;20041;-58
2023/09/24 06:15:03;;;;;;;14.60;9.95;;;14.00;99.90;;;;;;5046549;28;20029;-58
2023/09/24 06:17:29;;;;;;;15.95;10.02;;;14.00;99.90;;;;;;5044621;28;20025;-58
2023/09/24 06:19:55;;;;;;;11.38;8.10;;;14.10;99.90;;;;;;5045714;28;20052;-58
2023/09/24 06:22:22;;;;;;;9.45;7.22;;;14.10;99.90;;;;;;5044105;28;20310;-58
2023/09/24 06:24:50;;;;;;;12.27;9.38;;;14.10;99.90;;;;;;5044056;28;20017;-58
2023/09/24 06:27:16;;;;;;;12.73;9.57;;;14.20;99.90;;;;;;5039446;28;20052;-58
2023/09/24 06:29:43;;;;;;;12.00;7.78;;;14.30;99.90;;;;;;5041896;28;20119;-58
2023/09/24 06:32:08;;;;;;;12.82;8.52;;;14.40;99.90;;;;;;5038559;28;20026;-58
2023/09/24 06:34:36;;;;;;;8.05;6.90;;;14.50;99.90;;;;;;5037099;28;20080;-58
2023/09/24 06:37:02;;;;;;;9.40;6.90;;;14.60;99.90;;;;;;5040583;28;20024;-57
2023/09/24 06:39:29;;;;;;;12.38;8.77;;;14.70;99.90;;;;;;5043737;28;20033;-58
2023/09/24 06:41:55;;;;;;;14.15;9.57;;;14.80;99.90;;;;;;5036530;28;20147;-58
2023/09/24 06:44:22;;;;;;;13.48;8.27;;;14.80;99.90;;;;;;5038811;28;20091;-58
2023/09/24 06:46:52;;;;;;;9.32;7.32;;;14.90;99.90;;;;;;5034862;28;20318;-58
2023/09/24 06:49:17;;;;;;;13.85;10.00;;;15.00;99.90;;;;;;5040081;28;20033;-58
2023/09/24 06:51:43;;;;;;;11.48;7.55;;;14.90;99.90;;;;;;5041727;28;20143;-58
2023/09/24 06:54:08;;;;;;;9.90;7.07;;;14.90;99.90;;;;;;5039038;28;20162;-58
2023/09/24 06:56:34;;;;;;;10.98;7.13;;;15.00;99.90;;;;;;5038478;28;20048;-58
2023/09/24 06:58:59;;;;;;;13.90;8.35;;;15.00;99.90;;;;;;5040124;28;20036;-58
2023/09/24 07:01:25;;;;;;;11.85;8.57;;;15.10;99.90;;;;;;5051021;28;20021;-58
2023/09/24 07:03:51;;;;;;;14.27;8.32;;;15.10;99.90;;;;;;5046425;28;20033;-59
2023/09/24 07:06:17;;;;;;;11.90;8.23;;;15.20;99.90;;;;;;5043693;28;20032;-58
2023/09/24 07:08:43;;;;;;;16.67;10.10;;;15.30;99.90;;;;;;5041844;28;20020;-58
2023/09/24 07:11:31;;;;;;;11.13;7.93;;;15.40;99.90;;;;;;5039650;28;20037;-58
2023/09/24 07:13:57;;;;;;;11.13;7.38;;;15.40;99.90;;;;;;5038910;28;20105;-58
2023/09/24 07:16:25;;;;;;;9.65;7.13;;;15.40;99.90;;;;;;5045120;28;20013;-58
2023/09/24 07:18:51;;;;;;;8.73;6.95;;;15.50;99.90;;;;;;5040663;28;20017;-58
2023/09/24 07:21:18;;;;;;;8.60;6.70;;;15.60;99.90;;;;;;5043813;28;20479;-59
2023/09/24 07:23:47;;;;;;;13.43;9.20;;;15.70;99.90;;;;;;5051150;28;20094;-58
2023/09/24 07:26:13;;;;;;;10.50;6.65;;;15.70;99.90;;;;;;5038983;28;20025;-59
2023/09/24 07:28:39;;;;;;;7.97;6.30;;;15.80;99.90;;;;;;5038802;28;20064;-58
2023/09/24 07:31:15;;;;;;;11.85;6.60;;;15.90;99.90;;;;;;5037716;28;20042;-58
2023/09/24 07:33:44;;;;;;;9.38;6.95;;;15.90;99.90;;;;;;5040633;28;20540;-58
2023/09/24 07:36:11;;;;;;;6.75;5.97;;;15.90;99.90;;;;;;5037942;28;20014;-58
2023/09/24 07:38:36;;;;;;;8.70;5.13;;;16.00;99.90;;;;;;5034058;28;20036;-58
2023/09/24 07:41:02;;;;;;;10.88;5.90;;;16.10;99.90;;;;;;5039939;28;20046;-58
2023/09/24 07:43:28;;;;;;;6.47;4.78;;;16.10;99.90;;;;;;5040468;28;20112;-58
2023/09/24 07:45:54;;;;;;;9.30;6.82;;;16.20;99.90;;;;;;5049125;28;20089;-58
2023/09/24 07:48:19;;;;;;;11.63;6.63;;;16.20;99.90;;;;;;5036632;28;20021;-58
2023/09/24 07:50:54;;;;;;;12.38;7.60;;;16.30;99.90;;;;;;5036713;28;20030;-59
2023/09/24 07:53:24;;;;;;;12.50;8.70;;;16.30;99.90;;;;;;5041679;28;20083;-58
2023/09/24 07:56:02;;;;;;;10.88;7.00;;;16.10;99.90;;;;;;5035645;28;20026;-58
2023/09/24 07:58:30;;;;;;;10.55;7.78;;;16.20;99.90;;;;;;5036857;28;20039;-58
2023/09/24 08:01:01;;;;;;;11.70;7.15;;;16.20;99.90;;;;;;5038217;28;20071;-58
2023/09/24 08:03:27;;;;;;;9.52;6.30;;;16.20;99.90;;;;;;5041863;28;20021;-59
2023/09/24 08:05:52;;;;;;;11.43;7.32;;;16.30;99.90;;;;;;5038002;28;20039;-58
2023/09/24 08:08:18;;;;;;;11.38;8.25;;;16.50;99.90;;;;;;5045198;28;20025;-58
2023/09/24 08:10:43;;;;;;;10.73;7.05;;;16.50;99.90;;;;;;5043062;28;20052;-58
2023/09/24 08:13:09;;;;;;;9.43;5.93;;;16.60;99.90;;;;;;5045117;28;20116;-58
2023/09/24 08:15:35;;;;;;;6.50;4.75;;;16.80;99.90;;;;;;5045393;28;20075;-58
2023/09/24 08:18:01;;;;;;;8.68;4.72;;;17.10;99.90;;;;;;5037841;28;20036;-58
2023/09/24 08:20:27;;;;;;;7.25;4.53;;;17.60;99.90;;;;;;5035511;28;20090;-58
2023/09/24 08:22:52;;;;;;;5.95;3.40;;;18.60;99.90;;;;;;5041184;28;20021;-59
2023/09/24 08:25:18;;;;;;;8.00;3.80;;;19.80;99.90;;;;;;5044762;28;20017;-52
2023/09/24 08:27:44;;;;;;;5.65;3.97;;;20.90;99.90;;;;;;5045101;28;20013;-52
2023/09/24 08:30:10;;;;;;;5.65;2.72;;;22.20;98.60;;;;;;5049282;28;20478;-52
2023/09/24 08:32:35;;;;;;;3.25;2.05;;;23.50;97.50;;;;;;5039551;28;20332;-52
2023/09/24 08:35:02;;;;;;;3.95;1.90;;;24.80;94.40;;;;;;5045638;28;20096;-53
2023/09/24 08:37:28;;;;;;;3.95;1.90;;;25.20;92.20;;;;;;5043038;28;20040;-52
2023/09/24 08:39:53;;;;;;;3.40;1.63;;;25.80;91.60;;;;;;5045667;28;20028;-53
2023/09/24 08:42:19;;;;;;;1.70;1.48;;;27.40;87.80;;;;;;5047441;28;20025;-52
2023/09/24 08:44:58;;;;;;;5.70;2.00;;;28.20;84.20;;;;;;5045025;28;20013;-54
2023/09/24 08:47:25;;;;;;;3.30;1.90;;;28.50;81.10;;;;;;5046382;28;20009;-53
2023/09/24 08:49:51;;;;;;;4.80;1.88;;;29.00;80.80;;;;;;5037575;28;20029;-53
2023/09/24 08:52:18;;;;;;;2.40;1.88;;;28.50;79.00;;;;;;5039107;28;20028;-53
2023/09/24 08:54:45;;;;;;;3.85;2.10;;;28.90;77.70;;;;;;5040235;28;20116;-53
2023/09/24 08:57:11;;;;;;;6.05;2.10;;;29.40;76.40;;;;;;5034817;28;20064;-53
2023/09/24 08:59:37;;;;;;;4.55;1.92;;;29.60;76.30;;;;;;5037916;28;20057;-54
2023/09/24 09:02:03;;;;;;;6.45;2.20;;;30.10;73.30;;;;;;5040682;28;20451;-54
2023/09/24 09:04:28;;;;;;;2.53;1.55;;;30.10;74.30;;;;;;5042602;28;20049;-54
2023/09/24 09:06:57;;;;;;;3.25;1.85;;;30.40;71.40;;;;;;5039570;28;20037;-54
2023/09/24 09:09:25;;;;;;;2.75;1.35;;;30.30;71.30;;;;;;5043479;28;20032;-54
2023/09/24 09:11:51;;;;;;;3.33;1.60;;;30.30;70.80;;;;;;5038770;28;20071;-54
2023/09/24 09:14:35;;;;;;;3.00;1.58;;;30.40;69.40;;;;;;5040273;28;20375;-54
2023/09/24 09:17:02;;;;;;;4.03;1.85;;;30.70;67.50;;;;;;5039628;28;20434;-53
2023/09/24 09:19:29;;;;;;;3.55;1.77;;;30.10;67.40;;;;;;5037980;28;20021;-53
2023/09/24 09:21:55;;;;;;;2.88;1.42;;;28.60;70.60;;;;;;5036609;28;20026;-51
2023/09/24 09:24:25;;;;;;;7.22;1.20;;;27.10;72.50;;;;;;5039287;28;20098;-52
2023/09/24 09:26:54;;;;;;;4.50;1.27;;;26.30;75.20;;;;;;5035164;28;20205;-52
2023/09/24 09:29:24;;;;;;;3.70;1.50;;;25.40;78.40;;;;;;5030348;28;20100;-51
2023/09/24 09:31:50;;;;;;;;;;;24.10;78.90;;;;;;5040059;28;20017;-50
2023/09/24 09:34:16;;;;;;;2.50;1.23;;;23.00;84.20;;;;;;5042176;28;20374;-51
2023/09/24 09:36:42;;;;;;;3.70;1.40;;;23.30;85.20;;;;;;5037470;28;20120;-51
2023/09/24 09:39:08;;;;;;;1.92;1.42;;;24.70;83.50;;;;;;5041785;28;20028;-51
2023/09/24 09:41:34;;;;;;;3.00;1.20;;;26.70;80.90;;;;;;5037539;28;20104;-52
2023/09/24 09:44:09;;;;;;;2.60;1.00;;;26.70;75.90;;;;;;5037392;28;20276;-51
2023/09/24 09:46:37;;;;;;;1.58;1.10;;;26.20;77.10;;;;;;5041017;28;20061;-51
2023/09/24 09:49:07;;;;;;;3.88;1.40;;;25.50;78.40;;;;;;5036700;28;20032;-51
2023/09/24 09:51:46;;;;;;;2.25;1.40;;;24.70;81.30;;;;;;5038357;28;20037;-52
2023/09/24 09:54:12;;;;;;;2.05;1.50;;;24.80;78.80;;;;;;5041668;28;20517;-51
2023/09/24 09:56:38;;;;;;;2.00;1.10;;;24.90;80.40;;;;;;5038830;28;20032;-52
2023/09/24 09:59:04;;;;;;;3.10;1.20;;;26.30;76.30;;;;;;5045397;28;20037;-52
2023/09/24 10:01:31;;;;;;;1.90;0.90;;;27.80;74.50;;;;;;5037815;28;20029;-53
2023/09/24 10:03:59;;;;;;;3.40;1.15;;;27.70;72.20;;;;;;5034254;28;20021;-51
2023/09/24 10:06:25;;;;;;;2.03;1.00;;;28.30;73.30;;;;;;5040435;28;20016;-53
2023/09/24 10:08:52;;;;;;;2.78;1.00;;;29.00;73.20;;;;;;5041155;28;20104;-53
2023/09/24 10:11:43;;;;;;;2.47;1.10;;;29.90;70.50;;;;;;5044122;28;20230;-53
2023/09/24 10:14:09;;;;;;;1.73;0.70;;;30.60;67.80;;;;;;5041249;28;20021;-53
2023/09/24 10:16:37;;;;;;;2.38;0.75;;;31.00;67.60;;;;;;5042841;28;20033;-54
2023/09/24 10:19:13;;;;;;;1.15;0.80;;;30.20;67.00;;;;;;5038742;28;20029;-52
2023/09/24 10:21:43;;;;;;;2.80;0.88;;;30.40;66.40;;;;;;5044205;28;20082;-53
2023/09/24 10:24:14;;;;;;;2.35;0.90;;;30.40;67.90;;;;;;5045605;28;20024;-53
2023/09/24 10:27:03;;;;;;;1.92;1.05;;;30.30;66.80;;;;;;5042815;28;20104;-52
2023/09/24 10:29:49;;;;;;;4.72;1.10;;;28.70;66.20;;;;;;5037295;28;20103;-52
2023/09/24 10:32:20;;;;;;;1.27;0.82;;;26.60;70.20;;;;;;5037557;28;20033;-52
2023/09/24 10:34:52;;;;;;;1.05;0.85;;;24.90;75.50;;;;;;5034232;28;20395;-51
2023/09/24 10:37:21;;;;;;;1.75;0.90;;;24.50;77.00;;;;;;5041524;28;20025;-52
2023/09/24 10:40:05;;;;;;;2.80;1.38;;;24.90;76.60;;;;;;5034560;28;20069;-51
2023/09/24 10:43:09;;;;;;;1.67;1.23;;;25.70;71.40;;;;;;5040925;28;20482;-52
2023/09/24 10:45:35;;;;;;;0.98;0.68;;;26.30;72.80;;;;;;5027754;28;20068;-51
2023/09/24 10:48:02;;;;;;;3.92;1.17;;;25.70;73.20;;;;;;5044557;28;20487;-51
2023/09/24 10:50:28;;;;;;;1.58;0.93;;;25.20;74.40;;;;;;5048090;28;20498;-51
2023/09/24 10:52:59;;;;;;;1.58;0.93;;;24.90;74.20;;;;;;5044744;28;20033;-51
2023/09/24 10:55:30;;;;;;;2.70;0.90;;;26.10;75.30;;;;;;5042710;28;20024;-52
2023/09/24 10:58:15;;;;;;;2.00;0.98;;;27.60;73.40;;;;;;5041469;28;20029;-52
2023/09/24 11:00:49;;;;;;;1.55;0.82;;;28.60;71.30;;;;;;5042725;28;20056;-53
2023/09/24 11:03:14;;;;;;;5.13;1.20;;;29.60;69.10;;;;;;5046313;28;20271;-53
2023/09/24 11:05:40;;;;;;;1.23;0.70;;;29.70;68.50;;;;;;5042715;28;20017;-53
2023/09/24 11:08:06;;;;;;;2.45;0.93;;;29.40;67.90;;;;;;5046667;28;20104;-52
2023/09/24 11:10:31;;;;;;;1.67;1.15;;;27.40;68.30;;;;;;5052447;28;20041;-52
2023/09/24 11:13:02;;;;;;;1.58;1.33;;;26.70;71.70;;;;;;5044188;28;20272;-51
2023/09/24 11:15:31;;;;;;;1.73;1.13;;;25.70;73.00;;;;;;5045315;28;20060;-51
2023/09/24 11:17:57;;;;;;;1.65;0.90;;;25.50;76.60;;;;;;5044350;28;20546;-52
2023/09/24 11:20:23;;;;;;;1.35;1.02;;;26.30;74.40;;;;;;5042735;28;20048;-51
2023/09/24 11:22:56;;;;;;;1.95;0.95;;;26.70;72.10;;;;;;5040848;28;20399;-52
2023/09/24 11:25:22;;;;;;;2.35;1.40;;;26.10;73.10;;;;;;5039858;28;20125;-51
2023/09/24 11:27:48;;;;;;;3.45;1.30;;;26.00;74.00;;;;;;5039902;28;20108;-49
2023/09/24 11:30:15;;;;;;;2.50;1.20;;;25.30;76.10;;;;;;5047734;28;20021;-51
2023/09/24 11:32:42;;;;;;;2.30;1.10;;;24.60;76.50;;;;;;5044739;28;20521;-51
2023/09/24 11:35:15;;;;;;;3.78;1.20;;;23.80;77.70;;;;;;5043729;28;20076;-51
2023/09/24 11:38:01;;;;;;;2.33;1.48;;;24.20;80.40;;;;;;5041976;28;20064;-50
2023/09/24 11:40:34;;;;;;;2.53;1.20;;;25.40;77.80;;;;;;5040417;28;20017;-51
2023/09/24 11:43:05;;;;;;;2.45;1.55;;;26.30;72.80;;;;;;5044731;28;20060;-51
2023/09/24 11:45:48;;;;;;;1.75;0.90;;;27.30;74.20;;;;;;5044803;28;20028;-52
2023/09/24 11:48:16;;;;;;;1.42;0.93;;;28.20;71.30;;;;;;5042718;28;20017;-51
2023/09/24 11:50:48;;;;;;;2.20;0.90;;;28.70;70.80;;;;;;5045731;28;20430;-51
2023/09/24 11:53:14;;;;;;;1.85;1.00;;;29.00;67.20;;;;;;5044452;28;20031;-51
2023/09/24 11:55:42;;;;;;;2.53;0.95;;;29.40;65.90;;;;;;5044823;28;20431;-51
2023/09/24 11:58:10;;;;;;;2.72;0.93;;;29.40;65.50;;;;;;5044975;28;20024;-52
2023/09/24 12:00:36;;;;;;;1.35;0.82;;;30.30;64.70;;;;;;5046774;28;20540;-51
2023/09/24 12:03:03;;;;;;;2.25;1.23;;;29.60;63.80;;;;;;5044881;28;20136;-50
2023/09/24 12:05:29;;;;;;;3.22;1.23;;;28.20;66.80;;;;;;5044989;28;20482;-53
2023/09/24 12:07:55;;;;;;;1.23;1.00;;;27.20;67.30;;;;;;5035194;28;20025;-50
2023/09/24 12:10:21;;;;;;;2.15;1.10;;;26.60;69.70;;;;;;5042820;28;20027;-51
2023/09/24 12:12:50;;;;;;;2.13;1.05;;;26.40;72.50;;;;;;5045270;28;20034;-51
2023/09/24 12:15:17;;;;;;;1.42;1.13;;;26.90;71.70;;;;;;5047554;28;20021;-51
2023/09/24 12:17:44;;;;;;;1.00;0.90;;;27.30;71.10;;;;;;5043420;28;20025;-51
2023/09/24 12:20:11;;;;;;;2.28;1.17;;;27.80;71.10;;;;;;5046135;28;20074;-51
2023/09/24 12:22:40;;;;;;;1.83;1.30;;;27.80;68.50;;;;;;5044396;28;20025;-50
2023/09/24 12:25:06;;;;;;;1.98;1.00;;;27.00;69.70;;;;;;5043276;28;20017;-50
2023/09/24 12:27:32;;;;;;;2.55;1.50;;;27.70;69.30;;;;;;5047594;28;20025;-51
2023/09/24 12:29:57;;;;;;;1.77;1.05;;;27.50;66.90;;;;;;5041656;28;20045;-51
2023/09/24 12:32:23;;;;;;;2.20;1.10;;;26.50;70.00;;;;;;5041855;28;20112;-51
2023/09/24 12:34:49;;;;;;;2.70;1.80;;;26.20;67.70;;;;;;5042412;28;20031;-48
2023/09/24 12:37:15;;;;;;;2.25;1.10;;;26.00;70.30;;;;;;5045215;28;20498;-51
2023/09/24 12:39:41;;;;;;;2.30;1.20;;;25.70;72.50;;;;;;5046005;28;20037;-49
2023/09/24 12:42:06;;;;;;;2.42;1.20;;;25.40;71.40;;;;;;5040496;28;20022;-51
2023/09/24 12:44:32;;;;;;;2.60;1.25;;;25.50;72.00;;;;;;5040396;28;20044;-50
2023/09/24 12:46:58;;;;;;;1.75;1.00;;;25.60;72.50;;;;;;5041528;28;20056;-49
2023/09/24 12:49:23;;;;;;;1.33;1.13;;;25.40;71.40;;;;;;5041509;28;20079;-51